Terminal Aerodrome Forecast
Issued by NWS Blacksburg, VA

Current Version | Previous Version | Graphics & Text | Print | Product List | Glossary On
Versions: 1 2 3 4 5 6 7 8 9 10 11 12 13 14 15 16 17 18 19 20 21 22 23 24 25 26 27 28 29 30 31 32 33 34 35 36 37 38 39 40 41 42 43 44 45 46 47 48 49 50
187
FTUS41 KRNK 150043 AAD
TAFBLF
TAF AMD
KBLF 150043Z 1501/1524 VRB03KT P6SM -SHRA OVC010
      TEMPO 1502/1504 2SM +TSRA OVC025CB
     FM150600 VRB03KT 5SM -SHRA OVC012
     FM151300 00000KT P6SM BKN020
     FM151800 30004KT P6SM BKN035=

USA.gov is the U.S. government's official web portal to all federal, state and local government web resources and services.